Overview Statistics Trail Chart Weather Telemetry Raw packets
 

This is the latest recevied weather packets stored in our database for station/object OK5TVR-5. If no packets are shown the sender has not sent any weather packets the latest 10 day(s).

<< 27 28 29 30 31 32 33 >>
Time Temp. Humidity Pressure Rain* Wind** Luminosity Snow
1788077364 21.67° C 59% 1008.4 hPa 0 mm - 148 W/m² -
1788076464 21.11° C 62% 1008.6 hPa 0 mm - 74 W/m² -
1788075564 21.11° C 61% 1008.4 hPa 0 mm - 115 W/m² -
1788074664 21.67° C 63% 1008.4 hPa 0 mm - 132 W/m² -
1788073764 20° C 65% 1008.7 hPa 0 mm - 84 W/m² -
1788072864 19.44° C 65% 1008.8 hPa 0 mm - 61 W/m² -
1788071964 18.89° C 71% 1008.7 hPa 0 mm - 84 W/m² -
1788071064 18.33° C 72% 1008.8 hPa 0 mm - 45 W/m² -
1788070164 18.33° C 74% 1008.8 hPa 0 mm - 25 W/m² -
1788069264 17.22° C 77% 1008.8 hPa 0 mm - 21 W/m² -
1788068364 17.22° C 75% 1008.8 hPa 0 mm - 24 W/m² -
1788067464 16.67° C 79% 1008.9 hPa 0 mm - 21 W/m² -
1788066564 15.56° C 83% 1009 hPa 0 mm - 17 W/m² -
1788065664 15° C 83% 1009 hPa 0 mm - 11 W/m² -
1788064764 15° C 84% 1009 hPa 0 mm - 5 W/m² -
1788063864 15° C 81% 1008.7 hPa 0 mm - 2 W/m² -
1788062964 15.56° C 80% 1008.8 hPa 0 mm - 0 W/m² -
1788062064 15.56° C 81% 1008.7 hPa 0 mm - 0 W/m² -
1788061165 15.56° C 79% 1008.7 hPa 0 mm - 0 W/m² -
1788060264 16.11° C 77% 1008.7 hPa 0 mm - 0 W/m² -
1788059364 16.11° C 80% 1008.6 hPa 0 mm - 0 W/m² -
1788058464 16.11° C 80% 1008.7 hPa 0 mm - 0 W/m² -
1788057564 16.11° C 78% 1008.7 hPa 0 mm - 0 W/m² -
1788056664 16.11° C 78% 1008.6 hPa 0 mm - 0 W/m² -
1788055764 16.11° C 81% 1008.8 hPa 0 mm - 0 W/m² -

* Rain latest hour (hover to see other rain measurements)
** Current wind speed in m/s (hover to see current wind gust speed)